createdAt,value
2022-12-23T00:00:27.876Z,15.70
2022-12-23T00:02:54.582Z,20.10
2022-12-23T00:05:21.335Z,16.42
2022-12-23T00:07:47.994Z,15.05
2022-12-23T00:10:14.585Z,15.10
2022-12-23T00:12:59.641Z,16.10
2022-12-23T00:15:26.222Z,15.50
2022-12-23T00:17:54.402Z,17.40
2022-12-23T00:20:20.933Z,13.50
2022-12-23T00:23:05.873Z,15.68
2022-12-23T00:25:41.092Z,14.27
2022-12-23T00:28:13.706Z,13.75
2022-12-23T00:31:14.000Z,19.20
2022-12-23T00:33:43.482Z,13.25
2022-12-23T00:36:27.993Z,16.30
2022-12-23T00:39:14.457Z,14.10
2022-12-23T00:41:59.709Z,14.07
2022-12-23T00:44:26.731Z,16.95
2022-12-23T00:46:53.957Z,17.10
2022-12-23T00:49:39.883Z,20.13
2022-12-23T00:52:11.565Z,19.35
2022-12-23T00:54:38.049Z,18.73
2022-12-23T00:57:05.086Z,20.33
2022-12-23T00:59:32.030Z,19.30
2022-12-23T01:02:17.522Z,19.98
2022-12-23T01:05:02.899Z,20.42
2022-12-23T01:07:29.554Z,19.73
2022-12-23T01:09:56.178Z,20.45
2022-12-23T01:12:22.820Z,21.15
2022-12-23T01:14:49.611Z,17.25
2022-12-23T01:17:16.435Z,22.83
2022-12-23T01:19:42.997Z,19.58
2022-12-23T01:22:09.851Z,14.07
2022-12-23T01:24:39.218Z,20.33
2022-12-23T01:27:05.740Z,16.55
2022-12-23T01:29:32.426Z,16.38
2022-12-23T01:31:58.974Z,18.33
2022-12-23T01:34:29.706Z,15.75
2022-12-23T01:37:01.388Z,16.42
2022-12-23T01:39:30.205Z,11.93
2022-12-23T01:42:15.558Z,20.08
2022-12-23T01:44:55.820Z,14.60
2022-12-23T01:48:02.591Z,12.38
2022-12-23T01:50:47.902Z,17.83
2022-12-23T01:53:33.155Z,18.27
2022-12-23T01:56:02.831Z,17.77
2022-12-23T01:58:42.135Z,15.57
2022-12-23T02:01:27.970Z,20.00
2022-12-23T02:03:58.818Z,17.80
2022-12-23T02:07:03.935Z,19.00
2022-12-23T02:09:33.331Z,20.38
2022-12-23T02:12:02.850Z,22.55
2022-12-23T02:14:59.588Z,22.17
2022-12-23T02:17:36.777Z,21.60
2022-12-23T02:20:25.260Z,25.25
2022-12-23T02:23:07.271Z,25.20
2022-12-23T02:26:08.042Z,24.35
2022-12-23T02:28:37.545Z,27.45
2022-12-23T02:31:23.481Z,32.33
2022-12-23T02:34:10.453Z,28.63
2022-12-23T02:37:01.049Z,31.85
2022-12-23T02:39:42.348Z,33.60
2022-12-23T02:42:16.726Z,30.90
2022-12-23T02:45:13.676Z,33.63
2022-12-23T02:47:53.902Z,35.80
2022-12-23T02:50:27.681Z,29.17
2022-12-23T02:52:58.619Z,34.50
2022-12-23T02:55:29.945Z,37.67
2022-12-23T02:57:59.645Z,41.05
2022-12-23T03:00:26.731Z,46.00
2022-12-23T03:02:53.909Z,43.97
2022-12-23T03:05:27.638Z,47.05
2022-12-23T03:07:59.697Z,48.25
2022-12-23T03:10:38.027Z,45.63
2022-12-23T03:13:19.769Z,43.05
2022-12-23T03:16:14.414Z,52.83
2022-12-23T03:19:19.651Z,49.22
2022-12-23T03:21:59.995Z,53.90
2022-12-23T03:24:40.714Z,53.88
2022-12-23T03:27:28.238Z,51.40
2022-12-23T03:29:57.609Z,53.03
2022-12-23T03:32:27.764Z,48.13
2022-12-23T03:34:58.828Z,48.13
2022-12-23T03:37:27.811Z,44.63
2022-12-23T03:40:10.428Z,43.58
2022-12-23T03:42:40.737Z,48.15
2022-12-23T03:48:11.150Z,49.90
2022-12-23T03:50:39.679Z,47.97
2022-12-23T03:53:21.801Z,38.72
2022-12-23T03:55:54.255Z,39.88
2022-12-23T03:58:51.002Z,40.38
2022-12-23T04:01:42.075Z,37.30
2022-12-23T04:04:30.342Z,38.63
2022-12-23T04:07:05.170Z,40.53
2022-12-23T04:09:31.863Z,39.25
2022-12-23T04:11:59.056Z,39.08
2022-12-23T04:14:25.608Z,42.70
2022-12-23T04:16:55.826Z,37.08
2022-12-23T04:19:22.974Z,40.33
2022-12-23T04:21:49.854Z,38.35
2022-12-23T04:24:16.536Z,40.55
2022-12-23T04:26:43.944Z,40.78
2022-12-23T04:29:10.588Z,40.53
2022-12-23T04:31:39.503Z,41.03
2022-12-23T04:34:06.121Z,42.55
2022-12-23T04:36:33.339Z,36.00
2022-12-23T04:39:00.010Z,34.40
2022-12-23T04:41:26.559Z,37.13
2022-12-23T04:43:53.632Z,41.95
2022-12-23T04:46:21.838Z,42.13
2022-12-23T04:48:48.426Z,42.97
2022-12-23T04:51:15.045Z,38.95
2022-12-23T04:53:41.691Z,36.63
2022-12-23T04:56:08.232Z,43.45
2022-12-23T04:58:34.843Z,39.28
2022-12-23T05:01:06.367Z,44.40
2022-12-23T05:03:35.081Z,34.28
2022-12-23T05:06:01.923Z,41.88
2022-12-23T05:08:28.832Z,36.28
2022-12-23T05:10:56.175Z,38.40
2022-12-23T05:13:22.980Z,32.05
2022-12-23T05:15:50.989Z,36.17
2022-12-23T05:18:17.720Z,31.15
2022-12-23T05:20:44.624Z,38.13
2022-12-23T05:23:11.548Z,36.10
2022-12-23T05:25:39.520Z,34.55
2022-12-23T05:28:10.967Z,29.15
2022-12-23T05:30:38.606Z,31.23
2022-12-23T05:33:05.195Z,32.97
2022-12-23T05:35:31.908Z,30.10
2022-12-23T05:37:58.389Z,35.25
2022-12-23T05:40:27.836Z,32.00
2022-12-23T05:42:58.171Z,33.50
2022-12-23T05:45:24.921Z,35.63
2022-12-23T05:47:51.675Z,43.38
2022-12-23T05:50:18.665Z,27.92
2022-12-23T05:52:45.140Z,33.97
2022-12-23T05:55:11.768Z,32.63
2022-12-23T05:57:38.678Z,31.83
2022-12-23T06:00:08.451Z,35.15
2022-12-23T06:02:35.376Z,31.20
2022-12-23T06:05:02.208Z,33.88
2022-12-23T06:07:28.749Z,35.20
2022-12-23T06:09:55.818Z,34.40
2022-12-23T06:12:25.442Z,34.55
2022-12-23T06:14:53.284Z,35.85
2022-12-23T06:17:19.925Z,32.90
2022-12-23T06:19:47.455Z,29.48
2022-12-23T06:22:14.429Z,30.67
2022-12-23T06:24:41.407Z,38.42
2022-12-23T06:27:07.881Z,34.45
2022-12-23T06:29:34.431Z,33.92
2022-12-23T06:32:06.375Z,31.33
2022-12-23T06:35:00.196Z,30.20
2022-12-23T06:37:27.005Z,36.50
2022-12-23T06:39:53.885Z,35.38
2022-12-23T06:42:22.759Z,41.38
2022-12-23T06:44:49.497Z,32.90
2022-12-23T06:47:16.015Z,34.90
2022-12-23T06:49:42.556Z,29.13
2022-12-23T06:52:10.182Z,37.20
2022-12-23T06:54:37.001Z,38.60
2022-12-23T06:57:06.523Z,26.27
2022-12-23T06:59:33.226Z,50.70
2022-12-23T07:01:59.813Z,34.40
2022-12-23T07:04:26.477Z,46.15
2022-12-23T07:06:54.176Z,39.00
2022-12-23T07:09:23.712Z,40.67
2022-12-23T07:11:50.361Z,45.83
2022-12-23T07:14:17.593Z,49.10
2022-12-23T07:16:45.216Z,57.08
2022-12-23T07:19:12.034Z,47.30
2022-12-23T07:22:35.246Z,44.17
2022-12-23T07:25:05.405Z,37.80
2022-12-23T07:27:32.155Z,40.70
2022-12-23T07:29:58.778Z,31.55
2022-12-23T07:32:25.422Z,46.80
2022-12-23T07:34:52.522Z,27.23
2022-12-23T07:37:21.387Z,41.72
2022-12-23T07:39:48.115Z,40.70
2022-12-23T07:45:01.765Z,32.42
2022-12-23T07:47:28.316Z,25.75
2022-12-23T07:49:54.972Z,35.10
2022-12-23T07:52:23.877Z,44.38
2022-12-23T07:54:55.085Z,47.80
2022-12-23T07:57:21.868Z,43.92
2022-12-23T07:59:48.446Z,57.38
2022-12-23T08:02:15.198Z,32.65
2022-12-23T08:04:46.012Z,32.83
2022-12-23T08:07:13.431Z,34.60
2022-12-23T08:09:40.060Z,33.53
2022-12-23T08:12:06.880Z,34.42
2022-12-23T08:14:34.865Z,35.83
2022-12-23T08:17:02.003Z,31.05
2022-12-23T08:19:28.613Z,37.67
2022-12-23T08:21:55.062Z,35.15
2022-12-23T08:24:21.594Z,39.85
2022-12-23T08:26:48.114Z,43.30
2022-12-23T08:29:14.705Z,35.60
2022-12-23T08:31:41.194Z,42.60
2022-12-23T08:34:08.253Z,37.60
2022-12-23T08:36:36.325Z,33.92
2022-12-23T08:39:09.692Z,38.58
2022-12-23T08:41:40.072Z,32.75
2022-12-23T08:44:06.927Z,43.08
2022-12-23T08:46:34.373Z,40.53
2022-12-23T08:49:01.071Z,46.55
2022-12-23T08:51:27.918Z,57.40
2022-12-23T08:54:00.410Z,41.78
2022-12-23T08:56:30.896Z,48.80
2022-12-23T08:58:57.611Z,51.17
2022-12-23T09:01:27.425Z,73.00
2022-12-23T09:03:54.962Z,54.45
2022-12-23T09:06:29.849Z,51.97
2022-12-23T09:08:57.236Z,91.43
2022-12-23T09:11:25.888Z,65.47
2022-12-23T09:13:52.919Z,52.80
2022-12-23T09:16:19.759Z,65.03
2022-12-23T09:18:46.481Z,51.03
2022-12-23T09:21:15.746Z,62.65
2022-12-23T09:23:43.089Z,70.43
2022-12-23T09:26:10.794Z,67.53
2022-12-23T09:28:37.718Z,62.83
2022-12-23T09:31:09.278Z,54.22
2022-12-23T09:33:36.333Z,54.60
2022-12-23T09:36:03.887Z,53.85
2022-12-23T09:38:31.117Z,65.05
2022-12-23T09:41:15.165Z,71.63
2022-12-23T09:44:03.507Z,90.60
2022-12-23T09:46:34.021Z,80.05
2022-12-23T09:49:05.364Z,70.43
2022-12-23T09:51:33.284Z,83.68
2022-12-23T09:54:16.910Z,63.50
2022-12-23T09:56:52.052Z,72.47
2022-12-23T09:59:47.828Z,65.05
2022-12-23T10:02:30.660Z,46.08
2022-12-23T10:05:39.005Z,48.38
2022-12-23T10:08:27.624Z,51.03
2022-12-23T10:11:00.248Z,42.17
2022-12-23T10:13:36.643Z,41.35
2022-12-23T10:16:09.675Z,38.08
2022-12-23T10:18:56.977Z,37.47
2022-12-23T10:21:47.601Z,31.67
2022-12-23T10:24:22.916Z,32.95
2022-12-23T10:27:16.763Z,31.10
2022-12-23T10:29:43.374Z,31.20
2022-12-23T10:32:37.461Z,33.67
2022-12-23T10:35:16.003Z,27.15
2022-12-23T10:37:52.429Z,31.00
2022-12-23T10:40:27.992Z,24.70
2022-12-23T10:43:22.833Z,26.95
2022-12-23T10:46:07.763Z,34.28
2022-12-23T10:48:53.852Z,31.50
2022-12-23T10:51:28.330Z,34.35
2022-12-23T10:54:13.995Z,28.98
2022-12-23T10:56:40.691Z,36.15
2022-12-23T10:59:12.091Z,34.25
2022-12-23T11:01:40.244Z,35.33
2022-12-23T11:04:17.135Z,28.83
2022-12-23T11:06:52.833Z,30.45
2022-12-23T11:09:35.803Z,39.05
2022-12-23T11:12:06.397Z,33.05
2022-12-23T11:14:39.294Z,33.20
2022-12-23T11:17:18.714Z,34.05
2022-12-23T11:19:45.482Z,30.25
2022-12-23T11:22:22.816Z,31.55
2022-12-23T11:24:51.210Z,26.50
2022-12-23T11:27:18.202Z,31.35
2022-12-23T11:29:51.660Z,28.30
2022-12-23T11:32:23.971Z,26.90
2022-12-23T11:34:51.456Z,30.63
2022-12-23T11:37:44.002Z,29.02
2022-12-23T11:40:31.070Z,28.42
2022-12-23T11:43:14.536Z,29.10
2022-12-23T11:45:43.874Z,34.60
2022-12-23T11:48:30.366Z,24.88
2022-12-23T11:51:02.565Z,33.00
2022-12-23T11:53:29.528Z,36.90
2022-12-23T11:56:08.904Z,37.13
2022-12-23T11:58:46.660Z,35.17
2022-12-23T12:01:25.395Z,28.08
2022-12-23T12:03:59.365Z,30.65
2022-12-23T12:06:27.798Z,27.50
2022-12-23T12:08:57.822Z,30.58
2022-12-23T12:11:35.226Z,22.92
2022-12-23T12:14:05.085Z,23.70
2022-12-23T12:16:48.521Z,20.67
2022-12-23T12:19:28.619Z,23.95
2022-12-23T12:22:00.755Z,19.95
2022-12-23T12:24:38.333Z,22.25
2022-12-23T12:27:07.204Z,24.35
2022-12-23T12:29:39.242Z,22.02
2022-12-23T12:32:15.724Z,18.38
2022-12-23T12:35:02.758Z,19.30
2022-12-23T12:37:55.289Z,19.17
2022-12-23T12:40:33.947Z,17.92
2022-12-23T12:43:23.426Z,18.80
2022-12-23T12:46:13.770Z,18.65
2022-12-23T12:48:59.737Z,21.95
2022-12-23T12:51:43.279Z,15.73
2022-12-23T12:54:14.628Z,18.80
2022-12-23T12:56:47.906Z,17.65
2022-12-23T12:59:36.184Z,21.50
2022-12-23T13:02:27.257Z,14.10
2022-12-23T13:05:12.181Z,19.45
2022-12-23T13:08:19.266Z,16.95
2022-12-23T13:10:59.593Z,19.48
2022-12-23T13:14:09.065Z,18.15
2022-12-23T13:16:56.219Z,14.70
2022-12-23T13:19:36.559Z,14.23
2022-12-23T13:24:56.579Z,19.00
2022-12-23T13:27:44.169Z,13.57
2022-12-23T13:30:13.923Z,19.48
2022-12-23T13:33:06.784Z,17.77
2022-12-23T13:36:02.982Z,15.63
2022-12-23T13:39:04.201Z,21.17
2022-12-23T13:41:47.003Z,23.80
2022-12-23T13:44:15.186Z,20.63
2022-12-23T13:47:05.998Z,22.10
2022-12-23T13:49:39.986Z,26.15
2022-12-23T13:52:06.373Z,21.30
2022-12-23T13:54:49.834Z,22.25
2022-12-23T13:57:28.684Z,24.42
2022-12-23T14:00:25.441Z,22.88
2022-12-23T14:02:52.053Z,20.95
2022-12-23T14:05:38.842Z,25.30
2022-12-23T14:08:23.845Z,23.90
2022-12-23T14:11:02.472Z,24.52
2022-12-23T14:13:37.938Z,23.65
2022-12-23T14:16:28.925Z,23.15
2022-12-23T14:19:19.775Z,25.67
2022-12-23T14:21:49.261Z,25.58
2022-12-23T14:24:27.923Z,25.55
2022-12-23T14:26:55.730Z,28.05
2022-12-23T14:29:28.753Z,23.42
2022-12-23T14:31:57.707Z,24.90
2022-12-23T14:34:32.770Z,20.95
2022-12-23T14:37:21.200Z,22.98
2022-12-23T14:39:49.307Z,27.48
2022-12-23T14:42:39.894Z,26.00
2022-12-23T14:45:24.603Z,23.60
2022-12-23T14:47:51.259Z,26.70
2022-12-23T14:50:33.248Z,24.15
2022-12-23T14:53:33.400Z,23.60
2022-12-23T14:56:26.120Z,25.13
2022-12-23T15:02:00.797Z,22.95
2022-12-23T15:04:40.553Z,22.48
2022-12-23T15:07:31.822Z,24.50
2022-12-23T15:10:01.509Z,24.70
2022-12-23T15:12:34.930Z,22.65
2022-12-23T15:15:16.767Z,29.70
2022-12-23T15:17:43.870Z,24.38
2022-12-23T15:20:10.406Z,26.10
2022-12-23T15:22:38.428Z,24.35
2022-12-23T15:25:06.256Z,26.77
2022-12-23T15:27:36.139Z,23.60
2022-12-23T15:30:03.356Z,25.85
2022-12-23T15:32:30.212Z,26.48
2022-12-23T15:35:05.925Z,27.48
2022-12-23T15:37:33.322Z,28.20
2022-12-23T15:40:07.867Z,29.42
2022-12-23T15:42:39.000Z,25.75
2022-12-23T15:45:34.746Z,22.33
2022-12-23T15:48:02.935Z,26.70
2022-12-23T15:50:30.320Z,28.08
2022-12-23T15:53:05.281Z,32.95
2022-12-23T15:55:34.326Z,23.83
2022-12-23T15:58:02.845Z,23.23
2022-12-23T16:00:57.641Z,31.88
2022-12-23T16:03:40.066Z,28.90
2022-12-23T16:06:20.055Z,26.17
2022-12-23T16:08:59.852Z,31.10
2022-12-23T16:11:56.684Z,29.77
2022-12-23T16:14:37.433Z,25.30
2022-12-23T16:17:10.001Z,27.23
2022-12-23T16:19:36.485Z,26.92
2022-12-23T16:22:26.298Z,24.35
2022-12-23T16:25:11.572Z,26.00
2022-12-23T16:27:47.090Z,28.27
2022-12-23T16:30:21.494Z,24.08
2022-12-23T16:35:28.291Z,22.55
2022-12-23T16:38:16.084Z,24.00
2022-12-23T16:40:44.671Z,24.17
2022-12-23T16:43:11.611Z,25.63
2022-12-23T16:45:39.186Z,28.15
2022-12-23T16:48:19.655Z,24.45
2022-12-23T16:53:14.065Z,20.80
2022-12-23T16:55:46.200Z,21.20
2022-12-23T16:58:16.961Z,20.15
2022-12-23T17:00:43.558Z,25.00
2022-12-23T17:03:16.321Z,22.13
2022-12-23T17:05:43.807Z,21.50
2022-12-23T17:08:10.585Z,20.33
2022-12-23T17:10:39.711Z,22.58
2022-12-23T17:13:06.277Z,24.73
2022-12-23T17:15:32.822Z,22.90
2022-12-23T17:17:59.276Z,21.42
2022-12-23T17:20:26.016Z,20.95
2022-12-23T17:22:58.055Z,21.25
2022-12-23T17:25:26.664Z,21.13
2022-12-23T17:27:53.688Z,21.50
2022-12-23T17:30:22.979Z,17.98
2022-12-23T17:32:59.958Z,19.40
2022-12-23T17:35:27.005Z,20.50
2022-12-23T17:37:53.592Z,17.00
2022-12-23T17:40:20.568Z,17.30
2022-12-23T17:42:47.806Z,16.40
2022-12-23T17:45:26.437Z,18.98
2022-12-23T17:47:53.019Z,17.50
2022-12-23T17:50:20.161Z,15.05
2022-12-23T17:52:50.824Z,16.35
2022-12-23T17:55:23.668Z,15.60
2022-12-23T17:57:51.760Z,12.65
2022-12-23T18:00:28.018Z,10.82
2022-12-23T18:03:03.501Z,13.18
2022-12-23T18:05:35.061Z,12.63
2022-12-23T18:08:03.033Z,11.65
2022-12-23T18:10:39.090Z,8.93
2022-12-23T18:13:15.392Z,9.90
2022-12-23T18:15:45.538Z,9.50
2022-12-23T18:18:23.925Z,11.80
2022-12-23T18:20:54.690Z,11.40
2022-12-23T18:23:25.008Z,12.23
2022-12-23T18:25:51.717Z,12.57
2022-12-23T18:28:18.366Z,12.75
2022-12-23T18:30:45.507Z,13.68
2022-12-23T18:33:13.093Z,16.35
2022-12-23T18:35:44.754Z,14.30
2022-12-23T18:38:12.091Z,18.98
2022-12-23T18:40:40.082Z,15.15
2022-12-23T18:43:07.211Z,14.55
2022-12-23T18:45:49.136Z,23.27
2022-12-23T18:48:18.951Z,24.77
2022-12-23T18:50:46.937Z,29.50
2022-12-23T18:53:24.656Z,23.00
2022-12-23T18:55:54.372Z,18.25
2022-12-23T18:58:21.565Z,17.73
2022-12-23T19:00:49.878Z,24.95
2022-12-23T19:05:53.102Z,20.67
2022-12-23T19:08:26.347Z,17.15
2022-12-23T19:10:55.561Z,19.63
2022-12-23T19:13:22.700Z,15.80
2022-12-23T19:15:50.001Z,20.10
2022-12-23T19:18:21.480Z,15.10
2022-12-23T19:20:56.912Z,15.30
2022-12-23T19:23:26.480Z,12.10
2022-12-23T19:25:55.476Z,12.25
2022-12-23T19:28:23.763Z,7.45
2022-12-23T19:30:50.619Z,12.43
2022-12-23T19:33:17.389Z,8.15
2022-12-23T19:35:44.244Z,11.25
2022-12-23T19:38:12.484Z,10.52
2022-12-23T19:40:40.004Z,10.88
2022-12-23T19:43:07.376Z,15.65
2022-12-23T19:45:34.519Z,13.50
2022-12-23T19:48:01.401Z,9.50
2022-12-23T19:50:28.434Z,15.98
2022-12-23T19:52:56.612Z,12.05
2022-12-23T19:55:24.066Z,14.13
2022-12-23T19:57:53.621Z,15.05
2022-12-23T20:00:20.334Z,13.00
2022-12-23T20:02:47.096Z,12.32
2022-12-23T20:05:13.705Z,7.35
2022-12-23T20:07:40.894Z,12.40
2022-12-23T20:10:10.741Z,14.68
2022-12-23T20:12:38.711Z,13.55
2022-12-23T20:15:05.823Z,13.80
2022-12-23T20:17:32.370Z,13.55
2022-12-23T20:19:58.905Z,15.25
2022-12-23T20:22:25.529Z,22.10
2022-12-23T20:24:52.111Z,17.90
2022-12-23T20:27:25.916Z,12.60
2022-12-23T20:29:54.730Z,26.67
2022-12-23T20:32:21.368Z,23.98
2022-12-23T20:34:49.949Z,18.17
2022-12-23T20:37:16.902Z,26.45
2022-12-23T20:39:43.457Z,19.05
2022-12-23T20:42:10.143Z,20.25
2022-12-23T20:44:37.620Z,16.27
2022-12-23T20:47:10.240Z,15.25
2022-12-23T20:49:36.805Z,24.98
2022-12-23T20:52:03.768Z,12.02
2022-12-23T20:54:33.653Z,12.15
2022-12-23T20:57:03.910Z,20.65
2022-12-23T20:59:30.669Z,18.23
2022-12-23T21:01:59.057Z,24.35
2022-12-23T21:04:25.871Z,18.38
2022-12-23T21:06:52.333Z,20.13
2022-12-23T21:09:19.288Z,16.38
2022-12-23T21:11:47.327Z,11.15
2022-12-23T21:14:15.038Z,14.20
2022-12-23T21:16:41.797Z,17.90
2022-12-23T21:19:15.600Z,9.40
2022-12-23T21:21:42.515Z,12.00
2022-12-23T21:24:09.853Z,17.50
2022-12-23T21:26:36.522Z,18.40
2022-12-23T21:29:05.480Z,17.90
2022-12-23T21:31:34.431Z,11.68
2022-12-23T21:34:01.474Z,12.05
2022-12-23T21:36:31.094Z,12.43
2022-12-23T21:38:58.706Z,17.52
2022-12-23T21:41:36.065Z,14.18
2022-12-23T21:44:03.121Z,11.57
2022-12-23T21:46:30.073Z,8.50
2022-12-23T21:48:58.040Z,15.65
2022-12-23T21:51:33.323Z,20.50
2022-12-23T21:54:05.555Z,28.65
2022-12-23T21:56:32.133Z,20.65
2022-12-23T21:59:01.483Z,26.80
2022-12-23T22:01:28.697Z,16.92
2022-12-23T22:03:56.782Z,18.42
2022-12-23T22:06:27.143Z,18.52
2022-12-23T22:08:54.870Z,20.73
2022-12-23T22:11:25.142Z,12.60
2022-12-23T22:13:52.088Z,15.63
2022-12-23T22:16:21.841Z,15.13
2022-12-23T22:18:50.969Z,11.93
2022-12-23T22:21:20.028Z,16.05
2022-12-23T22:23:47.619Z,13.18
2022-12-23T22:26:23.876Z,16.90
2022-12-23T22:28:51.729Z,11.88
2022-12-23T22:31:53.095Z,10.02
2022-12-23T22:34:22.516Z,11.93
2022-12-23T22:36:51.068Z,9.45
2022-12-23T22:39:21.485Z,19.30
2022-12-23T22:41:50.626Z,16.27
2022-12-23T22:44:18.064Z,25.40
2022-12-23T22:46:48.005Z,22.33
2022-12-23T22:49:15.399Z,32.50
2022-12-23T22:51:43.043Z,25.92
2022-12-23T22:54:09.812Z,27.45
2022-12-23T22:56:36.782Z,18.65
2022-12-23T22:59:04.750Z,18.13
2022-12-23T23:01:34.691Z,23.70
2022-12-23T23:04:02.859Z,14.32
2022-12-23T23:06:32.535Z,18.05
2022-12-23T23:08:59.844Z,15.27
2022-12-23T23:11:27.537Z,16.02
2022-12-23T23:13:54.916Z,17.40
2022-12-23T23:16:21.954Z,22.98
2022-12-23T23:18:49.026Z,16.50
2022-12-23T23:21:15.573Z,22.98
2022-12-23T23:23:42.162Z,24.05
2022-12-23T23:26:10.299Z,27.27
2022-12-23T23:28:39.258Z,28.85
2022-12-23T23:31:39.665Z,21.45
2022-12-23T23:33:52.775Z,19.98
2022-12-23T23:36:19.491Z,14.90
2022-12-23T23:38:46.110Z,20.52
2022-12-23T23:41:15.036Z,17.27
2022-12-23T23:43:45.327Z,18.65
2022-12-23T23:46:11.837Z,19.55
2022-12-23T23:48:39.433Z,17.70
2022-12-23T23:51:06.655Z,18.33
2022-12-23T23:53:33.191Z,23.55
2022-12-23T23:56:05.397Z,22.20
2022-12-23T23:58:32.127Z,20.92
